Time;durP1;ratioP1;P1;durP2;ratioP2;P2;SDS_P1;SDS_P2;PMS_P1;PMS_P2;Temp;Humidity;BMP_temperature;BMP_pressure;BME280_temperature;BME280_humidity;BME280_pressure;Samples;Min_cycle;Max_cycle;Signal;HPM_P1;HPM_P2
2021/05/01 07:30:24;;;;;;;9.63;8.63;;;10.10;99.90;;;;;;6001188;23;20832;31
2021/05/01 07:33:10;;;;;;;10.18;8.65;;;10.20;99.90;;;;;;4855614;29;20041;-80
2021/05/01 07:35:38;;;;;;;9.75;8.57;;;10.20;99.90;;;;;;4852561;29;20100;-80
2021/05/01 07:38:12;;;;;;;10.03;7.93;;;10.30;99.80;;;;;;4857248;29;20046;-80
2021/05/01 07:40:39;;;;;;;11.00;8.40;;;10.30;99.80;;;;;;4858421;29;20682;-80
2021/05/01 07:43:14;;;;;;;8.73;7.18;;;10.40;99.90;;;;;;4864348;29;20402;-80
2021/05/01 07:45:40;;;;;;;8.35;7.35;;;10.60;99.60;;;;;;4853827;29;20046;-80
2021/05/01 07:48:10;;;;;;;8.43;7.57;;;10.80;99.40;;;;;;4854111;29;20496;-80
2021/05/01 07:50:36;;;;;;;7.95;7.07;;;10.80;98.30;;;;;;4854175;29;20046;-79
2021/05/01 07:53:04;;;;;;;7.82;7.00;;;10.90;98.50;;;;;;4867169;29;20073;-80
2021/05/01 07:55:30;;;;;;;7.82;6.97;;;10.90;98.30;;;;;;4867983;29;20493;-80
2021/05/01 07:57:57;;;;;;;8.18;7.38;;;11.10;98.80;;;;;;4873196;29;20110;-80
2021/05/01 08:00:23;;;;;;;7.75;7.05;;;11.20;98.70;;;;;;4854004;29;20577;-80
2021/05/01 08:02:49;;;;;;;10.13;6.75;;;11.40;98.60;;;;;;4858388;29;20076;-80
2021/05/01 08:05:21;;;;;;;7.85;5.75;;;11.40;97.70;;;;;;4857686;29;20118;-80
2021/05/01 08:07:50;;;;;;;7.07;5.90;;;11.60;97.60;;;;;;4857327;29;20053;-80
2021/05/01 08:10:17;;;;;;;8.65;6.50;;;11.60;96.50;;;;;;4870312;29;20073;-80
2021/05/01 08:12:43;;;;;;;6.18;5.25;;;11.70;96.70;;;;;;4871656;29;20170;-80
2021/05/01 08:15:11;;;;;;;9.27;4.80;;;11.70;95.30;;;;;;4870292;29;20050;-79
2021/05/01 08:17:39;;;;;;;7.18;5.78;;;11.60;94.80;;;;;;4853113;29;20500;-80
2021/05/01 08:20:07;;;;;;;5.43;4.95;;;11.70;95.00;;;;;;4867681;29;20065;-81
2021/05/01 08:22:35;;;;;;;6.32;4.85;;;11.80;95.20;;;;;;4869532;29;20102;-80
2021/05/01 08:25:04;;;;;;;4.93;4.50;;;11.80;94.70;;;;;;4857113;29;20421;-82
2021/05/01 08:27:30;;;;;;;4.38;3.92;;;12.00;94.30;;;;;;4883498;29;20501;-81
2021/05/01 08:29:57;;;;;;;5.75;5.15;;;12.20;94.40;;;;;;4870598;29;20478;-80
2021/05/01 08:32:24;;;;;;;5.60;4.43;;;12.30;93.70;;;;;;4862501;29;20093;-80
2021/05/01 08:34:50;;;;;;;4.88;4.38;;;12.30;93.10;;;;;;4873644;29;20066;-80
2021/05/01 08:37:16;;;;;;;4.90;4.45;;;12.40;93.20;;;;;;4867060;29;20058;-79
2021/05/01 08:39:43;;;;;;;4.57;4.07;;;12.50;93.10;;;;;;4889368;29;20056;-80
2021/05/01 08:42:09;;;;;;;5.85;3.95;;;12.50;92.90;;;;;;4870745;29;20049;-80
2021/05/01 08:44:36;;;;;;;4.03;3.55;;;12.40;92.30;;;;;;4870285;29;20096;-80
2021/05/01 08:47:05;;;;;;;5.25;3.80;;;12.50;92.30;;;;;;4872117;29;20053;-80
2021/05/01 08:49:32;;;;;;;5.95;3.92;;;12.50;91.60;;;;;;4870504;29;20053;-81
2021/05/01 08:51:59;;;;;;;4.10;3.70;;;12.50;92.00;;;;;;4872588;29;20109;-80
2021/05/01 08:54:25;;;;;;;4.20;3.60;;;12.50;91.80;;;;;;4868853;29;20049;-81
2021/05/01 08:56:52;;;;;;;5.45;4.03;;;12.70;91.90;;;;;;4875492;29;20057;-80
2021/05/01 08:59:19;;;;;;;5.25;4.10;;;12.80;91.90;;;;;;4873405;29;20061;-81
2021/05/01 09:01:52;;;;;;;3.22;2.53;;;12.90;91.60;;;;;;4871044;29;20060;-80
2021/05/01 09:04:19;;;;;;;4.55;3.13;;;12.90;90.70;;;;;;4872836;29;20064;-80
2021/05/01 09:06:46;;;;;;;3.88;3.13;;;12.80;90.20;;;;;;4871161;29;20045;-80
2021/05/01 09:09:13;;;;;;;6.82;3.97;;;12.60;90.80;;;;;;4872012;29;20472;-79
2021/05/01 09:11:44;;;;;;;5.72;3.22;;;12.60;91.30;;;;;;4872364;29;20458;-80
2021/05/01 09:14:15;;;;;;;4.32;3.78;;;12.50;90.50;;;;;;4868372;29;20129;-80
2021/05/01 09:16:42;;;;;;;4.65;3.80;;;12.50;91.00;;;;;;4865275;29;20060;-80
2021/05/01 09:19:09;;;;;;;4.22;3.63;;;12.60;91.20;;;;;;4865975;29;20045;-81
2021/05/01 09:21:36;;;;;;;5.20;3.47;;;12.70;90.50;;;;;;4859091;29;20053;-80
2021/05/01 09:24:04;;;;;;;4.88;4.30;;;12.80;90.20;;;;;;4867931;29;20057;-80
2021/05/01 09:26:35;;;;;;;6.28;4.95;;;12.90;90.30;;;;;;4858561;29;20058;-79
2021/05/01 09:29:03;;;;;;;5.35;4.53;;;13.00;90.70;;;;;;4861900;29;20053;-79
2021/05/01 09:31:44;;;;;;;6.47;4.50;;;13.20;90.90;;;;;;4869193;29;20580;-80
2021/05/01 09:34:11;;;;;;;6.22;5.55;;;13.40;90.20;;;;;;4869148;29;20540;-79
2021/05/01 09:36:39;;;;;;;5.80;5.30;;;13.30;91.00;;;;;;4877232;29;20061;-78
2021/05/01 09:39:06;;;;;;;3.00;2.67;;;13.10;91.10;;;;;;4871278;29;20053;-78
2021/05/01 09:41:36;;;;;;;19.23;3.17;;;12.80;89.90;;;;;;4870522;29;20487;-78
2021/05/01 09:44:10;;;;;;;1.98;1.55;;;12.50;87.40;;;;;;4873228;29;20065;-78
2021/05/01 09:46:39;;;;;;;2.42;1.80;;;12.10;86.50;;;;;;4873548;29;20049;-78
2021/05/01 09:49:06;;;;;;;2.78;1.50;;;11.80;88.00;;;;;;4886702;29;20077;-78
2021/05/01 09:51:55;;;;;;;2.63;1.50;;;11.70;88.50;;;;;;4870618;29;20054;-78
2021/05/01 09:54:33;;;;;;;1.73;1.50;;;11.90;87.50;;;;;;4876745;29;20056;-78
2021/05/01 09:57:02;;;;;;;3.47;1.90;;;12.10;88.00;;;;;;4865793;29;20106;-78
2021/05/01 09:59:35;;;;;;;3.95;2.20;;;12.30;88.40;;;;;;4880465;29;20050;-79
2021/05/01 10:02:02;;;;;;;2.50;2.30;;;12.50;88.80;;;;;;4871934;29;20076;-78
2021/05/01 10:04:29;;;;;;;3.97;2.25;;;12.80;88.40;;;;;;4867575;29;20473;-78
2021/05/01 10:07:08;;;;;;;2.40;2.03;;;12.90;87.70;;;;;;4872145;29;20053;-79
2021/05/01 10:09:38;;;;;;;2.70;1.75;;;13.00;87.10;;;;;;4870075;29;20045;-80
2021/05/01 10:12:14;;;;;;;2.70;1.60;;;13.10;86.30;;;;;;4869341;29;20058;-79
2021/05/01 10:14:44;;;;;;;3.42;1.40;;;13.10;84.80;;;;;;4861530;29;20105;-79
2021/05/01 10:17:12;;;;;;;3.13;1.70;;;13.10;84.70;;;;;;4861199;29;20512;-80
2021/05/01 10:19:48;;;;;;;2.97;1.73;;;13.20;84.10;;;;;;4861591;29;20100;-79
2021/05/01 10:22:23;;;;;;;2.35;1.63;;;13.10;84.20;;;;;;4870312;29;20053;-79
2021/05/01 10:24:50;;;;;;;2.20;1.52;;;13.00;83.00;;;;;;4873065;29;20053;-78
2021/05/01 10:27:19;;;;;;;3.25;1.40;;;12.90;84.20;;;;;;4872639;29;20125;-79
2021/05/01 10:30:07;;;;;;;2.22;1.10;;;12.90;84.30;;;;;;4866939;29;20053;-79
2021/05/01 10:32:50;;;;;;;2.53;1.40;;;12.90;80.40;;;;;;4869821;29;20429;-78
2021/05/01 10:35:18;;;;;;;1.48;1.20;;;12.90;80.40;;;;;;4867054;29;20286;-78
2021/05/01 10:37:56;;;;;;;0.80;0.50;;;13.00;80.40;;;;;;4869380;29;20573;-79
2021/05/01 10:40:24;;;;;;;2.03;0.90;;;13.20;75.10;;;;;;4866044;29;20053;-78
2021/05/01 10:43:12;;;;;;;1.70;1.00;;;13.40;73.50;;;;;;4870030;29;20065;-79
2021/05/01 10:45:38;;;;;;;1.23;0.85;;;13.40;73.10;;;;;;4870861;29;20504;-79
2021/05/01 10:48:09;;;;;;;2.05;0.93;;;13.40;74.20;;;;;;4870541;29;20124;-80
2021/05/01 10:50:37;;;;;;;1.25;0.90;;;13.40;73.70;;;;;;4872149;29;20054;-80
2021/05/01 10:53:06;;;;;;;2.00;1.10;;;13.50;73.30;;;;;;4874764;29;20129;-80
2021/05/01 10:55:47;;;;;;;1.60;1.10;;;13.60;73.70;;;;;;4875488;29;20042;-80
2021/05/01 10:58:35;;;;;;;2.78;1.55;;;13.50;73.90;;;;;;4874102;29;20045;-81
2021/05/01 11:01:04;;;;;;;1.40;0.98;;;13.40;74.50;;;;;;4869932;29;20053;-80
2021/05/01 11:03:30;;;;;;;1.38;1.10;;;13.50;75.30;;;;;;4871982;29;20044;-79
2021/05/01 11:06:00;;;;;;;1.65;1.00;;;13.50;75.50;;;;;;4868480;29;20057;-79
2021/05/01 11:08:53;;;;;;;1.42;1.00;;;13.60;75.80;;;;;;4870013;29;20053;-80
2021/05/01 11:11:31;;;;;;;1.40;1.00;;;13.70;76.30;;;;;;4869052;29;20152;-79
2021/05/01 11:14:08;;;;;;;1.02;0.85;;;13.90;76.20;;;;;;4869633;29;20536;-79
2021/05/01 11:16:44;;;;;;;1.80;1.08;;;14.00;76.20;;;;;;4857042;29;20485;-80
2021/05/01 11:19:14;;;;;;;1.38;1.27;;;14.00;73.60;;;;;;4873726;29;20128;-82
2021/05/01 11:21:43;;;;;;;1.60;1.20;;;13.90;74.00;;;;;;4875493;29;20061;-82
2021/05/01 11:24:11;;;;;;;2.20;1.23;;;13.90;75.40;;;;;;4869136;29;20104;-81
2021/05/01 11:26:43;;;;;;;1.63;1.20;;;13.80;76.60;;;;;;4874915;29;20289;-81
2021/05/01 11:29:10;;;;;;;3.00;1.20;;;13.80;75.40;;;;;;4866655;29;20089;-81
2021/05/01 11:31:40;;;;;;;1.33;1.10;;;13.80;76.60;;;;;;4877653;29;20077;-80
2021/05/01 11:34:11;;;;;;;1.77;1.20;;;13.80;75.60;;;;;;4877382;29;20580;-80
2021/05/01 11:36:47;;;;;;;2.63;1.20;;;13.90;75.90;;;;;;4878014;29;20049;-81
2021/05/01 11:39:15;;;;;;;2.58;1.50;;;13.90;77.20;;;;;;4875600;29;20112;-81
2021/05/01 11:41:46;;;;;;;3.13;1.60;;;14.10;78.70;;;;;;4890791;29;20057;-81
2021/05/01 11:44:15;;;;;;;2.88;1.55;;;14.00;79.90;;;;;;4876648;29;20048;-80
2021/05/01 11:46:44;;;;;;;;;;;13.90;80.80;;;;;;4877529;29;20055;-80
2021/05/01 11:49:12;;;;;;;2.10;1.33;;;13.70;82.20;;;;;;4875553;29;19932;-81
2021/05/01 11:52:10;;;;;;;3.10;1.40;;;13.40;80.60;;;;;;4874807;29;20060;-82
2021/05/01 11:54:48;;;;;;;1.95;0.93;;;13.30;81.00;;;;;;4867510;29;20042;-81
2021/05/01 11:57:40;;;;;;;2.67;0.80;;;13.30;81.40;;;;;;4867567;29;20061;-81
2021/05/01 12:00:08;;;;;;;3.45;0.80;;;13.40;78.60;;;;;;4883380;29;20112;-82
2021/05/01 12:02:40;;;;;;;1.83;0.80;;;13.50;78.80;;;;;;4879503;29;20104;-81
2021/05/01 12:05:10;;;;;;;3.10;0.73;;;13.50;75.80;;;;;;4866764;29;20049;-81
2021/05/01 12:07:36;;;;;;;1.55;1.00;;;13.40;74.30;;;;;;4867297;29;20057;-80
2021/05/01 12:10:16;;;;;;;1.15;0.98;;;13.40;75.20;;;;;;4868809;29;20053;-79
2021/05/01 12:12:50;;;;;;;1.75;1.00;;;13.50;76.40;;;;;;4864711;29;20068;-81
2021/05/01 12:15:17;;;;;;;3.30;1.20;;;13.50;77.60;;;;;;4867424;29;20041;-80
2021/05/01 12:17:53;;;;;;;1.58;1.20;;;13.60;76.00;;;;;;4869456;29;20041;-81
2021/05/01 12:20:24;;;;;;;1.92;1.27;;;13.60;76.40;;;;;;4867013;29;20084;-80
2021/05/01 12:22:53;;;;;;;2.15;1.55;;;13.60;77.90;;;;;;4867944;29;20061;-79
2021/05/01 12:25:40;;;;;;;2.00;1.80;;;13.60;78.30;;;;;;4863461;29;20581;-80
2021/05/01 12:28:08;;;;;;;2.33;1.70;;;13.60;79.70;;;;;;4866185;29;20065;-81
2021/05/01 12:30:40;;;;;;;1.80;1.63;;;13.60;79.60;;;;;;4866140;29;20057;-79
2021/05/01 12:33:32;;;;;;;2.55;1.50;;;13.70;79.60;;;;;;4863799;29;20061;-80
2021/05/01 12:36:01;;;;;;;1.65;1.55;;;13.70;78.90;;;;;;4881165;29;20584;-81
2021/05/01 12:38:29;;;;;;;1.98;1.30;;;13.70;78.70;;;;;;4876764;29;20445;-81
2021/05/01 12:41:08;;;;;;;;;;;13.70;77.50;;;;;;4862497;29;20097;-81
2021/05/01 12:43:34;;;;;;;1.35;1.23;;;13.70;77.00;;;;;;4874829;29;20403;-81
2021/05/01 12:46:01;;;;;;;1.25;1.10;;;13.70;75.10;;;;;;4866987;29;20061;-81
2021/05/01 12:48:54;;;;;;;1.08;0.95;;;13.80;76.70;;;;;;4864371;29;20057;-81
2021/05/01 12:51:27;;;;;;;1.00;0.90;;;13.90;76.00;;;;;;4882999;29;20049;-80
2021/05/01 12:53:55;;;;;;;0.82;0.70;;;13.80;74.50;;;;;;4872650;29;20049;-80
2021/05/01 12:56:36;;;;;;;2.20;0.82;;;13.80;72.00;;;;;;4888626;29;20057;-81
2021/05/01 13:02:05;;;;;;;1.63;1.08;;;14.00;72.90;;;;;;4861778;29;20045;-80
2021/05/01 13:04:36;;;;;;;1.58;0.90;;;14.10;72.10;;;;;;4877231;29;20061;-79
2021/05/01 13:07:08;;;;;;;3.85;1.27;;;14.20;71.30;;;;;;4877449;29;20121;-80
2021/05/01 13:09:49;;;;;;;1.10;0.63;;;14.30;71.30;;;;;;4878311;29;20503;-80
2021/05/01 13:12:27;;;;;;;1.90;1.20;;;14.30;70.60;;;;;;4877013;29;20104;-79
2021/05/01 13:14:56;;;;;;;2.20;1.30;;;14.40;69.20;;;;;;4873861;29;20109;-81
2021/05/01 13:17:26;;;;;;;1.92;1.00;;;14.30;69.30;;;;;;4874450;29;20088;-80
2021/05/01 13:20:06;;;;;;;2.08;0.95;;;14.30;70.50;;;;;;4874865;29;20528;-80
2021/05/01 13:22:34;;;;;;;1.40;1.08;;;14.20;70.60;;;;;;4860175;29;20045;-80
2021/05/01 13:25:07;;;;;;;3.38;2.45;;;14.20;71.70;;;;;;4871612;29;20076;-80
2021/05/01 13:27:49;;;;;;;2.33;1.75;;;14.10;74.00;;;;;;4875160;29;20077;-78
2021/05/01 13:30:20;;;;;;;2.25;1.50;;;14.10;74.40;;;;;;4874573;29;20072;-79
2021/05/01 13:32:47;;;;;;;2.63;1.52;;;14.00;75.70;;;;;;4875312;29;20496;-79
2021/05/01 13:35:23;;;;;;;2.90;1.77;;;14.00;76.40;;;;;;4887468;29;20065;-78
2021/05/01 13:37:52;;;;;;;2.53;1.83;;;14.10;77.70;;;;;;4875499;29;20129;-78
2021/05/01 13:40:23;;;;;;;1.83;1.50;;;14.20;76.40;;;;;;4890973;29;20053;-79
2021/05/01 13:42:50;;;;;;;3.92;2.22;;;14.20;76.80;;;;;;4875760;29;20108;-79
2021/05/01 13:45:17;;;;;;;1.67;1.58;;;14.20;76.50;;;;;;4869637;29;20053;-79
2021/05/01 13:47:47;;;;;;;2.22;1.75;;;14.30;78.10;;;;;;4876582;29;20080;-80
2021/05/01 13:50:18;;;;;;;4.93;1.80;;;14.30;76.30;;;;;;4890002;29;20475;-80
2021/05/01 13:52:53;;;;;;;3.08;1.70;;;14.30;75.70;;;;;;4888016;29;20101;-79
2021/05/01 13:55:27;;;;;;;3.25;1.63;;;14.30;75.20;;;;;;4873589;29;20053;-81
2021/05/01 13:57:57;;;;;;;3.17;1.73;;;14.30;73.00;;;;;;4877232;29;20049;-80
2021/05/01 14:00:27;;;;;;;4.07;1.70;;;14.30;74.80;;;;;;4876079;29;20053;-79
2021/05/01 14:02:57;;;;;;;2.35;1.85;;;14.30;75.70;;;;;;4885686;29;20056;-79
2021/05/01 14:05:25;;;;;;;2.85;1.60;;;14.40;75.60;;;;;;4875836;29;20049;-78
2021/05/01 14:07:54;;;;;;;3.17;1.73;;;14.40;73.20;;;;;;4890736;29;20100;-79
2021/05/01 14:10:24;;;;;;;4.50;2.20;;;14.40;76.80;;;;;;4890328;29;20093;-79
2021/05/01 14:12:50;;;;;;;4.38;1.98;;;14.30;77.80;;;;;;4876558;29;20072;-79
2021/05/01 14:15:20;;;;;;;1.55;1.45;;;14.30;77.90;;;;;;4870158;29;20058;-79
2021/05/01 14:17:47;;;;;;;2.40;1.50;;;14.30;75.40;;;;;;4875809;29;20053;-79
2021/05/01 14:20:16;;;;;;;1.83;1.70;;;14.30;75.30;;;;;;4875577;29;20049;-80
2021/05/01 14:22:48;;;;;;;1.48;1.30;;;14.20;74.00;;;;;;4888489;29;20053;-80
2021/05/01 14:25:16;;;;;;;2.35;1.58;;;14.20;74.80;;;;;;4873117;29;20112;-80
2021/05/01 14:27:51;;;;;;;1.50;1.40;;;14.30;75.00;;;;;;4875856;29;20045;-79
2021/05/01 14:30:36;;;;;;;1.63;1.50;;;14.30;74.60;;;;;;4875661;29;20053;-81
2021/05/01 14:33:03;;;;;;;2.25;1.50;;;14.30;74.60;;;;;;4890372;29;20112;-80
2021/05/01 14:35:29;;;;;;;1.55;1.30;;;14.30;73.60;;;;;;4890314;29;20044;-80
2021/05/01 14:37:56;;;;;;;1.20;1.10;;;14.30;74.00;;;;;;4890582;29;20424;-80
2021/05/01 14:40:22;;;;;;;3.13;1.33;;;14.40;73.30;;;;;;4875813;29;20052;-80
2021/05/01 14:42:51;;;;;;;1.45;1.20;;;14.30;72.10;;;;;;4871047;29;20057;-80
2021/05/01 14:45:27;;;;;;;;;;;14.30;73.00;;;;;;4889688;29;20057;-81
2021/05/01 14:48:07;;;;;;;3.22;1.40;;;14.40;73.80;;;;;;4888583;29;20384;-80
2021/05/01 14:50:34;;;;;;;1.63;1.40;;;14.20;75.00;;;;;;4889949;29;20146;-83
2021/05/01 14:53:15;;;;;;;2.38;1.30;;;14.30;70.40;;;;;;4870921;29;20076;-82
2021/05/01 14:55:44;;;;;;;1.40;1.30;;;14.20;72.20;;;;;;4861542;29;20041;-82
2021/05/01 14:58:23;;;;;;;1.60;1.20;;;14.30;71.10;;;;;;4877001;29;20053;-81
2021/05/01 15:00:50;;;;;;;1.83;1.30;;;14.30;69.70;;;;;;4875827;29;20049;-81
2021/05/01 15:03:37;;;;;;;2.58;1.00;;;14.30;70.70;;;;;;4883872;29;20053;-81
2021/05/01 15:06:05;;;;;;;1.70;1.00;;;14.20;70.40;;;;;;4888575;29;20085;-82
2021/05/01 15:08:50;;;;;;;2.53;1.05;;;14.20;71.60;;;;;;4875622;29;20124;-81
2021/05/01 15:11:17;;;;;;;1.85;1.20;;;14.20;71.10;;;;;;4874214;29;20406;-82
2021/05/01 15:13:44;;;;;;;1.33;1.05;;;14.30;71.50;;;;;;4873901;29;20058;-81
2021/05/01 15:16:11;;;;;;;1.83;1.00;;;14.30;71.40;;;;;;4872380;29;20568;-81
2021/05/01 15:18:37;;;;;;;1.95;1.02;;;14.20;70.20;;;;;;4875237;29;20136;-81
2021/05/01 15:21:14;;;;;;;2.38;1.10;;;14.20;70.10;;;;;;4884009;29;20628;-81
2021/05/01 15:23:47;;;;;;;1.70;1.00;;;14.20;71.60;;;;;;4871644;29;20508;-81
2021/05/01 15:26:25;;;;;;;0.90;0.90;;;14.10;71.00;;;;;;4869261;29;20113;-80
2021/05/01 15:28:53;;;;;;;1.13;1.00;;;14.10;72.50;;;;;;4867474;29;20049;-81
2021/05/01 15:31:27;;;;;;;2.13;1.00;;;14.20;72.10;;;;;;4877723;29;20141;-79
2021/05/01 15:33:54;;;;;;;3.03;0.90;;;14.20;71.00;;;;;;4877950;29;20072;-80
2021/05/01 15:36:23;;;;;;;2.08;1.10;;;14.10;73.10;;;;;;4874754;29;20057;-80
2021/05/01 15:38:50;;;;;;;1.08;0.90;;;14.30;72.80;;;;;;4890630;29;20077;-81
2021/05/01 15:41:19;;;;;;;2.00;1.08;;;14.20;72.50;;;;;;4872943;29;20068;-79
2021/05/01 15:43:45;;;;;;;;;;;14.10;73.00;;;;;;4875954;29;20064;-82
2021/05/01 15:46:17;;;;;;;1.27;1.00;;;14.00;73.50;;;;;;4873752;29;19931;-80
2021/05/01 15:48:48;;;;;;;2.53;1.00;;;13.90;73.70;;;;;;4888780;29;20101;-81
2021/05/01 15:51:15;;;;;;;1.52;1.30;;;13.90;74.20;;;;;;4875103;29;20064;-80
2021/05/01 15:53:42;;;;;;;2.05;1.20;;;13.90;74.30;;;;;;4886426;29;20114;-80
2021/05/01 15:56:09;;;;;;;1.42;1.20;;;13.90;74.00;;;;;;4870232;29;20053;-82
2021/05/01 15:58:36;;;;;;;1.30;1.20;;;13.80;74.70;;;;;;4872177;29;20049;-82
2021/05/01 16:01:04;;;;;;;4.72;1.48;;;13.90;74.90;;;;;;4870663;29;20053;-82
2021/05/01 16:03:31;;;;;;;1.80;1.02;;;13.80;75.00;;;;;;4875444;29;20129;-81
2021/05/01 16:05:58;;;;;;;4.82;1.42;;;13.80;74.60;;;;;;4874918;29;20045;-81
2021/05/01 16:08:24;;;;;;;2.65;1.10;;;13.70;74.80;;;;;;4873844;29;20145;-81
2021/05/01 16:10:51;;;;;;;3.38;1.63;;;13.70;74.70;;;;;;4870735;29;20056;-81
2021/05/01 16:13:17;;;;;;;3.13;1.23;;;13.70;74.00;;;;;;4871865;29;20045;-80
2021/05/01 16:15:45;;;;;;;4.18;1.30;;;13.60;73.80;;;;;;4875014;29;20101;-81
2021/05/01 16:18:12;;;;;;;3.37;1.43;;;13.60;73.80;;;;;;4871772;29;20108;-78
2021/05/01 16:20:38;;;;;;;3.53;1.52;;;13.60;74.30;;;;;;4866275;29;20046;-80
2021/05/01 16:23:05;;;;;;;2.05;1.30;;;13.50;73.70;;;;;;4869229;29;20069;-81
2021/05/01 16:25:32;;;;;;;1.77;1.00;;;13.50;73.40;;;;;;4882710;29;20054;-80
2021/05/01 16:28:00;;;;;;;1.20;1.10;;;13.50;73.30;;;;;;4867294;29;20057;-80
2021/05/01 16:30:27;;;;;;;3.30;1.43;;;13.50;73.30;;;;;;4866804;29;20497;-82
2021/05/01 16:32:54;;;;;;;1.35;1.25;;;13.40;72.00;;;;;;4872367;29;20916;-80
2021/05/01 16:35:20;;;;;;;1.83;1.30;;;13.40;71.90;;;;;;4876172;29;20053;-79
2021/05/01 16:37:47;;;;;;;1.77;1.13;;;13.40;72.10;;;;;;4874612;29;20137;-80
2021/05/01 16:40:15;;;;;;;1.60;1.20;;;13.40;72.20;;;;;;4891187;29;20049;-80
2021/05/01 16:42:41;;;;;;;0.88;0.85;;;13.40;72.20;;;;;;4879351;29;20052;-79
2021/05/01 16:45:13;;;;;;;2.15;1.02;;;13.50;71.80;;;;;;4877216;29;20049;-80
2021/05/01 16:47:40;;;;;;;1.50;1.17;;;13.60;70.80;;;;;;4875624;29;20512;-81
2021/05/01 16:50:08;;;;;;;1.52;1.10;;;13.60;70.40;;;;;;4892413;29;20052;-80
2021/05/01 16:52:35;;;;;;;1.75;1.25;;;13.60;71.10;;;;;;4884587;29;20423;-81
2021/05/01 16:55:01;;;;;;;1.55;1.00;;;13.70;71.20;;;;;;4879587;29;20048;-80
2021/05/01 16:57:28;;;;;;;2.15;0.95;;;13.70;70.60;;;;;;4876736;29;20049;-80
2021/05/01 16:59:55;;;;;;;1.88;1.13;;;13.70;70.10;;;;;;4875250;29;20055;-79
2021/05/01 17:02:21;;;;;;;1.38;1.08;;;13.60;70.20;;;;;;4890990;29;20580;-79
2021/05/01 17:04:48;;;;;;;2.90;1.10;;;13.70;70.60;;;;;;4891962;29;20108;-79
2021/05/01 17:07:15;;;;;;;2.92;1.17;;;13.70;70.70;;;;;;4892102;29;20053;-79
2021/05/01 17:09:42;;;;;;;2.25;1.20;;;13.70;70.80;;;;;;4873921;29;20081;-80
2021/05/01 17:12:09;;;;;;;2.30;1.15;;;13.60;70.50;;;;;;4873879;29;20409;-80
2021/05/01 17:14:37;;;;;;;2.70;1.40;;;13.60;70.90;;;;;;4888639;29;20143;-81
2021/05/01 17:17:04;;;;;;;2.58;1.42;;;13.60;70.50;;;;;;4872906;29;20053;-82
2021/05/01 17:19:32;;;;;;;2.38;1.25;;;13.50;71.10;;;;;;4875041;29;20048;-81
2021/05/01 17:21:59;;;;;;;2.83;1.20;;;13.50;70.60;;;;;;4876539;29;20600;-81
2021/05/01 17:24:27;;;;;;;2.78;1.10;;;13.40;70.50;;;;;;4874333;29;20053;-81
2021/05/01 17:26:54;;;;;;;2.58;1.40;;;13.40;70.70;;;;;;4875000;29;20049;-80
2021/05/01 17:29:21;;;;;;;1.48;1.17;;;13.30;70.60;;;;;;4871572;29;20049;-80
2021/05/01 17:31:48;;;;;;;1.33;1.13;;;13.30;70.70;;;;;;4873183;29;20073;-80
2021/05/01 17:34:15;;;;;;;1.38;1.10;;;13.30;71.20;;;;;;4874747;29;20132;-81
2021/05/01 17:36:42;;;;;;;2.35;1.20;;;13.20;71.10;;;;;;4874701;29;20064;-80
2021/05/01 17:39:09;;;;;;;1.63;1.17;;;13.20;71.10;;;;;;4872626;29;20049;-83
2021/05/01 17:41:35;;;;;;;1.55;1.23;;;13.20;71.30;;;;;;4872780;29;20057;-82
2021/05/01 17:44:03;;;;;;;2.30;0.98;;;13.20;71.50;;;;;;4886845;29;20064;-80
2021/05/01 17:46:29;;;;;;;4.22;1.30;;;13.30;71.80;;;;;;4887864;29;20109;-80
2021/05/01 17:48:56;;;;;;;2.33;1.10;;;13.50;71.60;;;;;;4875037;29;20045;-80
2021/05/01 17:51:22;;;;;;;1.45;1.13;;;13.80;71.40;;;;;;4872316;29;20079;-80
2021/05/01 17:53:48;;;;;;;4.60;1.38;;;14.30;71.20;;;;;;4873226;29;20048;-81
2021/05/01 17:56:16;;;;;;;1.83;1.25;;;14.90;69.10;;;;;;4873637;29;20481;-80
2021/05/01 17:58:43;;;;;;;2.20;1.20;;;15.20;68.60;;;;;;4873337;29;20055;-81
2021/05/01 18:01:10;;;;;;;1.63;1.23;;;15.50;67.70;;;;;;4887726;29;20314;-80
2021/05/01 18:03:38;;;;;;;2.33;1.30;;;15.60;66.80;;;;;;4871684;29;20061;-80
2021/05/01 18:06:05;;;;;;;1.85;1.30;;;15.80;67.20;;;;;;4869781;29;20137;-80
2021/05/01 18:08:31;;;;;;;2.15;1.35;;;16.20;66.40;;;;;;4873006;29;20048;-79
2021/05/01 18:11:03;;;;;;;1.98;1.30;;;16.20;66.40;;;;;;4886119;29;20053;-81
2021/05/01 18:13:31;;;;;;;3.28;1.50;;;16.30;66.50;;;;;;4872571;29;20051;-79
2021/05/01 18:15:58;;;;;;;2.45;1.42;;;16.20;66.40;;;;;;4871465;29;20425;-79
2021/05/01 18:18:25;;;;;;;1.40;1.30;;;16.30;67.10;;;;;;4870874;29;20136;-81
2021/05/01 18:20:52;;;;;;;2.55;1.48;;;16.30;67.30;;;;;;4884425;29;20694;-79
2021/05/01 18:23:18;;;;;;;1.88;1.38;;;16.40;67.30;;;;;;4884530;29;20518;-80
2021/05/01 18:25:52;;;;;;;3.90;1.30;;;16.60;66.90;;;;;;4868084;29;20053;-81
2021/05/01 18:28:20;;;;;;;2.13;1.60;;;16.90;67.00;;;;;;4885563;29;20057;-82
2021/05/01 18:30:46;;;;;;;2.80;1.70;;;16.70;66.20;;;;;;4871669;29;21187;-82
2021/05/01 18:33:14;;;;;;;2.40;1.60;;;16.60;66.60;;;;;;4871435;29;20116;-82
2021/05/01 18:35:41;;;;;;;2.92;1.98;;;16.60;66.80;;;;;;4871727;29;20059;-82
2021/05/01 18:38:08;;;;;;;2.85;1.95;;;16.70;67.20;;;;;;4871690;29;20049;-82
2021/05/01 18:40:35;;;;;;;3.13;2.10;;;16.40;67.60;;;;;;4868708;29;20049;-81
2021/05/01 18:43:04;;;;;;;2.35;2.15;;;16.20;67.90;;;;;;4872910;29;20105;-81
2021/05/01 18:45:31;;;;;;;2.45;2.22;;;16.10;68.40;;;;;;4886934;29;20077;-80
2021/05/01 18:47:58;;;;;;;2.72;2.35;;;16.20;68.50;;;;;;4871049;29;20128;-80
2021/05/01 18:50:27;;;;;;;2.13;1.90;;;16.00;68.20;;;;;;4868707;29;20061;-80
2021/05/01 18:52:54;;;;;;;3.42;2.33;;;15.80;68.20;;;;;;4885413;29;20064;-80
2021/05/01 18:55:21;;;;;;;3.35;2.25;;;15.40;68.40;;;;;;4862609;29;20080;-79
2021/05/01 18:57:48;;;;;;;3.13;2.03;;;15.10;68.70;;;;;;4865790;29;20069;-80
2021/05/01 19:00:16;;;;;;;3.65;2.13;;;14.50;69.60;;;;;;4863641;29;20049;-80
2021/05/01 19:02:48;;;;;;;2.70;1.83;;;14.10;70.50;;;;;;4864911;29;20870;-80
2021/05/01 19:05:14;;;;;;;3.75;2.10;;;13.60;71.30;;;;;;4860403;29;20453;-80
2021/05/01 19:07:40;;;;;;;2.78;1.80;;;13.20;72.30;;;;;;4872132;29;20140;-81
2021/05/01 19:10:07;;;;;;;3.45;1.55;;;12.90;73.00;;;;;;4865195;29;20117;-81
2021/05/01 19:12:36;;;;;;;2.17;1.83;;;12.70;73.80;;;;;;4881651;29;20505;-81
2021/05/01 19:15:05;;;;;;;2.33;1.50;;;12.50;74.40;;;;;;4865532;29;20045;-81
2021/05/01 19:17:34;;;;;;;4.55;1.90;;;12.20;75.20;;;;;;4882535;29;20042;-80
2021/05/01 19:20:04;;;;;;;3.80;1.70;;;12.00;75.90;;;;;;4872088;29;20189;-79
2021/05/01 19:22:32;;;;;;;7.00;1.70;;;11.80;76.50;;;;;;4863654;29;20084;-79
2021/05/01 19:25:00;;;;;;;2.63;1.53;;;11.60;77.10;;;;;;4883919;29;20081;-80
2021/05/01 19:27:27;;;;;;;1.88;1.50;;;11.50;78.00;;;;;;4860992;29;20121;-79
2021/05/01 19:29:55;;;;;;;3.92;1.90;;;11.30;78.20;;;;;;4870426;29;20113;-79
2021/05/01 19:32:23;;;;;;;3.92;1.92;;;11.10;78.70;;;;;;4871221;29;20120;-80
2021/05/01 19:34:51;;;;;;;1.85;1.63;;;11.00;79.10;;;;;;4868154;29;20058;-81
2021/05/01 19:37:17;;;;;;;3.33;1.70;;;10.90;79.70;;;;;;4867095;29;20049;-80
2021/05/01 19:39:44;;;;;;;1.80;1.50;;;10.80;80.30;;;;;;4875419;29;20044;-79
2021/05/01 19:42:15;;;;;;;1.88;1.30;;;10.60;81.00;;;;;;4860439;29;20045;-80
2021/05/01 19:44:43;;;;;;;3.63;1.45;;;10.50;81.80;;;;;;4871163;29;20057;-79
2021/05/01 19:47:10;;;;;;;3.28;1.40;;;10.40;82.70;;;;;;4872678;29;20457;-80
2021/05/01 19:49:38;;;;;;;2.47;1.30;;;10.20;83.20;;;;;;4860360;29;20045;-80
2021/05/01 19:52:05;;;;;;;1.80;1.40;;;10.20;83.20;;;;;;4868867;29;20290;-81
2021/05/01 19:54:31;;;;;;;3.20;1.35;;;10.00;83.80;;;;;;4872674;29;20082;-78
2021/05/01 19:56:58;;;;;;;2.25;1.40;;;9.90;85.00;;;;;;4859378;29;20065;-78
2021/05/01 19:59:25;;;;;;;2.10;1.60;;;9.80;84.80;;;;;;4870655;29;20101;-80
2021/05/01 20:01:51;;;;;;;2.70;1.65;;;9.80;85.30;;;;;;4872754;29;20060;-79
2021/05/01 20:04:20;;;;;;;2.35;1.73;;;9.70;85.80;;;;;;4860446;29;20129;-79
2021/05/01 20:06:47;;;;;;;2.65;1.60;;;9.60;86.10;;;;;;4870451;29;20140;-80
2021/05/01 20:09:15;;;;;;;2.65;1.90;;;9.50;86.10;;;;;;4873479;29;20049;-79
2021/05/01 20:11:42;;;;;;;2.30;1.90;;;9.50;86.70;;;;;;4862028;29;20053;-79
2021/05/01 20:14:09;;;;;;;3.53;1.95;;;9.40;87.00;;;;;;4872520;29;21006;-79
2021/05/01 20:16:35;;;;;;;5.28;2.25;;;9.30;87.20;;;;;;4870404;29;20425;-79
2021/05/01 20:19:02;;;;;;;2.28;1.75;;;9.20;88.30;;;;;;4864642;29;20478;-80
2021/05/01 20:21:29;;;;;;;2.53;2.05;;;9.20;88.30;;;;;;4865604;29;20057;-80
2021/05/01 20:23:55;;;;;;;2.53;1.90;;;9.10;88.80;;;;;;4875092;29;20061;-79
2021/05/01 20:26:22;;;;;;;2.35;1.70;;;9.00;88.70;;;;;;4866695;29;20474;-80
2021/05/01 20:28:48;;;;;;;3.90;2.03;;;9.00;89.10;;;;;;4874434;29;20168;-81
2021/05/01 20:31:15;;;;;;;3.25;2.00;;;8.90;90.00;;;;;;4867427;29;20482;-79
2021/05/01 20:33:42;;;;;;;3.40;2.05;;;8.90;90.00;;;;;;4870439;29;20087;-79